sensor_id;sensor_type;location;lat;lon;timestamp;P1;durP1;ratioP1;P2;durP2;ratioP2
13477;SDS011;12598;62.382;17.344;2023-05-10T00:00:34;5.03;;;3.38;;
13477;SDS011;12598;62.382;17.344;2023-05-10T00:01:36;3.30;;;2.80;;
13477;SDS011;12598;62.382;17.344;2023-05-10T00:02:38;4.63;;;2.67;;
13477;SDS011;12598;62.382;17.344;2023-05-10T00:03:40;4.30;;;3.22;;
13477;SDS011;12598;62.382;17.344;2023-05-10T00:04:43;4.30;;;3.20;;
13477;SDS011;12598;62.382;17.344;2023-05-10T00:05:44;4.38;;;3.22;;
13477;SDS011;12598;62.382;17.344;2023-05-10T00:06:47;4.60;;;3.65;;
13477;SDS011;12598;62.382;17.344;2023-05-10T00:07:49;4.28;;;2.92;;
13477;SDS011;12598;62.382;17.344;2023-05-10T00:08:50;4.85;;;3.47;;
13477;SDS011;12598;62.382;17.344;2023-05-10T00:09:52;4.75;;;3.35;;
13477;SDS011;12598;62.382;17.344;2023-05-10T00:10:54;4.88;;;4.07;;
13477;SDS011;12598;62.382;17.344;2023-05-10T00:11:56;6.18;;;3.80;;
13477;SDS011;12598;62.382;17.344;2023-05-10T00:12:59;8.63;;;3.65;;
13477;SDS011;12598;62.382;17.344;2023-05-10T00:14:01;4.88;;;3.30;;
13477;SDS011;12598;62.382;17.344;2023-05-10T00:15:03;7.63;;;4.53;;
13477;SDS011;12598;62.382;17.344;2023-05-10T00:16:06;6.25;;;3.80;;
13477;SDS011;12598;62.382;17.344;2023-05-10T00:17:07;7.68;;;3.40;;
13477;SDS011;12598;62.382;17.344;2023-05-10T00:18:09;4.90;;;3.70;;
13477;SDS011;12598;62.382;17.344;2023-05-10T00:19:11;5.53;;;3.55;;
13477;SDS011;12598;62.382;17.344;2023-05-10T00:20:13;5.95;;;3.90;;
13477;SDS011;12598;62.382;17.344;2023-05-10T00:21:16;6.45;;;4.15;;
13477;SDS011;12598;62.382;17.344;2023-05-10T00:22:18;7.15;;;3.80;;
13477;SDS011;12598;62.382;17.344;2023-05-10T00:23:20;9.68;;;4.20;;
13477;SDS011;12598;62.382;17.344;2023-05-10T00:24:22;5.43;;;3.85;;
13477;SDS011;12598;62.382;17.344;2023-05-10T00:25:24;7.97;;;4.25;;
13477;SDS011;12598;62.382;17.344;2023-05-10T00:26:26;6.13;;;3.50;;
13477;SDS011;12598;62.382;17.344;2023-05-10T00:27:29;8.05;;;3.80;;
13477;SDS011;12598;62.382;17.344;2023-05-10T00:28:31;6.90;;;3.30;;
13477;SDS011;12598;62.382;17.344;2023-05-10T00:29:33;5.07;;;3.38;;
13477;SDS011;12598;62.382;17.344;2023-05-10T00:30:35;9.30;;;3.92;;
13477;SDS011;12598;62.382;17.344;2023-05-10T00:31:37;6.93;;;3.67;;
13477;SDS011;12598;62.382;17.344;2023-05-10T00:32:39;8.48;;;3.88;;
13477;SDS011;12598;62.382;17.344;2023-05-10T00:33:41;5.45;;;3.47;;
13477;SDS011;12598;62.382;17.344;2023-05-10T00:34:42;5.90;;;3.35;;
13477;SDS011;12598;62.382;17.344;2023-05-10T00:35:45;5.35;;;3.45;;
13477;SDS011;12598;62.382;17.344;2023-05-10T00:36:47;6.47;;;3.22;;
13477;SDS011;12598;62.382;17.344;2023-05-10T00:37:49;10.38;;;4.13;;
13477;SDS011;12598;62.382;17.344;2023-05-10T00:38:51;6.75;;;3.38;;
13477;SDS011;12598;62.382;17.344;2023-05-10T00:39:53;7.05;;;3.60;;
13477;SDS011;12598;62.382;17.344;2023-05-10T00:40:55;7.35;;;3.30;;
13477;SDS011;12598;62.382;17.344;2023-05-10T00:42:02;8.65;;;3.13;;
13477;SDS011;12598;62.382;17.344;2023-05-10T00:43:06;8.35;;;3.13;;
13477;SDS011;12598;62.382;17.344;2023-05-10T00:44:08;6.80;;;3.28;;
13477;SDS011;12598;62.382;17.344;2023-05-10T00:45:10;7.10;;;3.45;;
13477;SDS011;12598;62.382;17.344;2023-05-10T00:46:13;8.85;;;3.63;;
13477;SDS011;12598;62.382;17.344;2023-05-10T00:47:16;10.25;;;3.10;;
13477;SDS011;12598;62.382;17.344;2023-05-10T00:48:18;11.63;;;3.60;;
13477;SDS011;12598;62.382;17.344;2023-05-10T00:49:20;6.25;;;3.40;;
13477;SDS011;12598;62.382;17.344;2023-05-10T00:50:23;7.28;;;3.50;;
13477;SDS011;12598;62.382;17.344;2023-05-10T00:51:25;9.70;;;3.63;;
13477;SDS011;12598;62.382;17.344;2023-05-10T00:52:28;6.82;;;3.50;;
13477;SDS011;12598;62.382;17.344;2023-05-10T00:53:32;5.13;;;3.33;;
13477;SDS011;12598;62.382;17.344;2023-05-10T00:54:36;7.32;;;3.35;;
13477;SDS011;12598;62.382;17.344;2023-05-10T00:55:38;5.55;;;3.22;;
13477;SDS011;12598;62.382;17.344;2023-05-10T00:56:40;6.22;;;3.40;;
13477;SDS011;12598;62.382;17.344;2023-05-10T00:57:42;5.53;;;3.33;;
13477;SDS011;12598;62.382;17.344;2023-05-10T00:58:44;4.38;;;3.20;;
13477;SDS011;12598;62.382;17.344;2023-05-10T00:59:46;7.90;;;3.33;;
13477;SDS011;12598;62.382;17.344;2023-05-10T01:00:49;7.22;;;3.50;;
13477;SDS011;12598;62.382;17.344;2023-05-10T01:01:52;5.13;;;3.00;;
13477;SDS011;12598;62.382;17.344;2023-05-10T01:02:54;6.63;;;3.30;;
13477;SDS011;12598;62.382;17.344;2023-05-10T01:03:57;4.95;;;2.97;;
13477;SDS011;12598;62.382;17.344;2023-05-10T01:04:59;6.38;;;3.28;;
13477;SDS011;12598;62.382;17.344;2023-05-10T01:06:03;7.07;;;3.20;;
13477;SDS011;12598;62.382;17.344;2023-05-10T01:07:05;7.63;;;3.22;;
13477;SDS011;12598;62.382;17.344;2023-05-10T01:08:07;8.07;;;3.63;;
13477;SDS011;12598;62.382;17.344;2023-05-10T01:09:10;5.88;;;3.03;;
13477;SDS011;12598;62.382;17.344;2023-05-10T01:10:13;6.05;;;3.00;;
13477;SDS011;12598;62.382;17.344;2023-05-10T01:11:15;6.18;;;2.70;;
13477;SDS011;12598;62.382;17.344;2023-05-10T01:12:17;5.22;;;2.85;;
13477;SDS011;12598;62.382;17.344;2023-05-10T01:13:35;4.40;;;2.30;;
13477;SDS011;12598;62.382;17.344;2023-05-10T01:14:39;4.70;;;2.53;;
13477;SDS011;12598;62.382;17.344;2023-05-10T01:15:41;5.43;;;2.85;;
13477;SDS011;12598;62.382;17.344;2023-05-10T01:16:43;3.17;;;2.60;;
13477;SDS011;12598;62.382;17.344;2023-05-10T01:17:47;3.35;;;2.42;;
13477;SDS011;12598;62.382;17.344;2023-05-10T01:18:50;3.80;;;2.20;;
13477;SDS011;12598;62.382;17.344;2023-05-10T01:19:53;3.95;;;2.47;;
13477;SDS011;12598;62.382;17.344;2023-05-10T01:20:59;3.40;;;2.30;;
13477;SDS011;12598;62.382;17.344;2023-05-10T01:33:41;2.38;;;1.80;;
13477;SDS011;12598;62.382;17.344;2023-05-10T01:35:03;3.67;;;1.92;;
13477;SDS011;12598;62.382;17.344;2023-05-10T01:36:23;1.58;;;1.48;;
13477;SDS011;12598;62.382;17.344;2023-05-10T01:39:01;5.28;;;1.90;;
13477;SDS011;12598;62.382;17.344;2023-05-10T01:40:13;4.88;;;1.85;;
13477;SDS011;12598;62.382;17.344;2023-05-10T01:41:43;2.72;;;1.92;;
13477;SDS011;12598;62.382;17.344;2023-05-10T01:43:00;2.00;;;1.80;;
13477;SDS011;12598;62.382;17.344;2023-05-10T01:44:09;2.90;;;1.80;;
13477;SDS011;12598;62.382;17.344;2023-05-10T01:46:49;3.33;;;1.50;;
13477;SDS011;12598;62.382;17.344;2023-05-10T01:48:01;5.70;;;1.70;;
13477;SDS011;12598;62.382;17.344;2023-05-10T01:49:09;1.70;;;1.60;;
13477;SDS011;12598;62.382;17.344;2023-05-10T01:50:17;6.63;;;2.05;;
13477;SDS011;12598;62.382;17.344;2023-05-10T01:51:22;2.78;;;1.60;;
13477;SDS011;12598;62.382;17.344;2023-05-10T01:52:29;2.38;;;1.60;;
13477;SDS011;12598;62.382;17.344;2023-05-10T01:53:34;2.97;;;1.60;;
13477;SDS011;12598;62.382;17.344;2023-05-10T01:54:41;3.75;;;1.50;;
13477;SDS011;12598;62.382;17.344;2023-05-10T01:55:46;4.05;;;1.90;;
13477;SDS011;12598;62.382;17.344;2023-05-10T01:56:52;3.17;;;1.85;;
13477;SDS011;12598;62.382;17.344;2023-05-10T01:58:04;1.73;;;1.38;;
13477;SDS011;12598;62.382;17.344;2023-05-10T01:59:11;2.25;;;1.50;;
13477;SDS011;12598;62.382;17.344;2023-05-10T02:00:17;3.63;;;1.80;;
13477;SDS011;12598;62.382;17.344;2023-05-10T02:01:25;4.03;;;1.63;;
13477;SDS011;12598;62.382;17.344;2023-05-10T02:02:29;3.97;;;1.98;;
13477;SDS011;12598;62.382;17.344;2023-05-10T02:03:34;2.53;;;1.52;;
13477;SDS011;12598;62.382;17.344;2023-05-10T02:04:38;2.45;;;1.50;;
13477;SDS011;12598;62.382;17.344;2023-05-10T02:05:42;2.38;;;1.67;;
13477;SDS011;12598;62.382;17.344;2023-05-10T02:06:46;2.22;;;1.40;;
13477;SDS011;12598;62.382;17.344;2023-05-10T02:07:49;1.48;;;1.30;;
13477;SDS011;12598;62.382;17.344;2023-05-10T02:08:52;2.83;;;1.65;;
13477;SDS011;12598;62.382;17.344;2023-05-10T02:09:55;3.22;;;1.48;;
13477;SDS011;12598;62.382;17.344;2023-05-10T02:10:58;2.10;;;1.42;;
13477;SDS011;12598;62.382;17.344;2023-05-10T02:12:02;3.35;;;1.40;;
13477;SDS011;12598;62.382;17.344;2023-05-10T02:13:07;2.80;;;1.65;;
13477;SDS011;12598;62.382;17.344;2023-05-10T02:14:11;2.90;;;1.50;;
13477;SDS011;12598;62.382;17.344;2023-05-10T02:15:15;3.15;;;1.75;;
13477;SDS011;12598;62.382;17.344;2023-05-10T02:16:23;4.05;;;1.77;;
13477;SDS011;12598;62.382;17.344;2023-05-10T02:17:28;3.92;;;1.88;;
13477;SDS011;12598;62.382;17.344;2023-05-10T02:18:32;2.85;;;1.70;;
13477;SDS011;12598;62.382;17.344;2023-05-10T02:19:36;2.63;;;1.55;;
13477;SDS011;12598;62.382;17.344;2023-05-10T02:20:40;2.78;;;1.58;;
13477;SDS011;12598;62.382;17.344;2023-05-10T02:21:43;1.90;;;1.42;;
13477;SDS011;12598;62.382;17.344;2023-05-10T02:22:47;2.95;;;1.50;;
13477;SDS011;12598;62.382;17.344;2023-05-10T02:23:50;3.92;;;1.90;;
13477;SDS011;12598;62.382;17.344;2023-05-10T02:24:54;4.15;;;1.40;;
13477;SDS011;12598;62.382;17.344;2023-05-10T02:25:59;3.95;;;1.60;;
13477;SDS011;12598;62.382;17.344;2023-05-10T02:27:03;7.43;;;1.90;;
13477;SDS011;12598;62.382;17.344;2023-05-10T02:28:06;4.93;;;1.42;;
13477;SDS011;12598;62.382;17.344;2023-05-10T02:29:09;5.82;;;1.40;;
13477;SDS011;12598;62.382;17.344;2023-05-10T02:30:14;4.72;;;1.63;;
13477;SDS011;12598;62.382;17.344;2023-05-10T02:31:18;3.00;;;1.75;;
13477;SDS011;12598;62.382;17.344;2023-05-10T02:32:22;5.53;;;1.65;;
13477;SDS011;12598;62.382;17.344;2023-05-10T02:33:25;4.28;;;1.73;;
13477;SDS011;12598;62.382;17.344;2023-05-10T02:34:28;2.97;;;1.65;;
13477;SDS011;12598;62.382;17.344;2023-05-10T02:35:31;3.83;;;1.50;;
13477;SDS011;12598;62.382;17.344;2023-05-10T02:36:36;1.60;;;1.50;;
13477;SDS011;12598;62.382;17.344;2023-05-10T02:37:41;2.67;;;1.48;;
13477;SDS011;12598;62.382;17.344;2023-05-10T02:38:45;1.80;;;1.50;;
13477;SDS011;12598;62.382;17.344;2023-05-10T02:39:49;2.90;;;1.45;;
13477;SDS011;12598;62.382;17.344;2023-05-10T02:40:53;2.25;;;1.52;;
13477;SDS011;12598;62.382;17.344;2023-05-10T02:41:56;2.58;;;1.60;;
13477;SDS011;12598;62.382;17.344;2023-05-10T02:42:59;3.40;;;1.63;;
13477;SDS011;12598;62.382;17.344;2023-05-10T02:44:05;3.28;;;1.52;;
13477;SDS011;12598;62.382;17.344;2023-05-10T02:45:14;1.92;;;1.77;;
13477;SDS011;12598;62.382;17.344;2023-05-10T02:46:18;2.85;;;1.42;;
13477;SDS011;12598;62.382;17.344;2023-05-10T02:47:21;2.00;;;1.45;;
13477;SDS011;12598;62.382;17.344;2023-05-10T02:48:23;4.53;;;1.63;;
13477;SDS011;12598;62.382;17.344;2023-05-10T02:49:25;4.93;;;1.73;;
13477;SDS011;12598;62.382;17.344;2023-05-10T02:50:28;2.97;;;1.52;;
13477;SDS011;12598;62.382;17.344;2023-05-10T02:51:35;1.83;;;1.40;;
13477;SDS011;12598;62.382;17.344;2023-05-10T02:52:46;2.40;;;1.60;;
13477;SDS011;12598;62.382;17.344;2023-05-10T02:53:51;3.30;;;1.65;;
13477;SDS011;12598;62.382;17.344;2023-05-10T02:54:58;2.10;;;1.40;;
13477;SDS011;12598;62.382;17.344;2023-05-10T02:56:05;3.25;;;1.80;;
13477;SDS011;12598;62.382;17.344;2023-05-10T02:57:15;3.55;;;1.58;;
13477;SDS011;12598;62.382;17.344;2023-05-10T02:58:21;2.00;;;1.52;;
13477;SDS011;12598;62.382;17.344;2023-05-10T02:59:23;2.08;;;1.50;;
13477;SDS011;12598;62.382;17.344;2023-05-10T03:00:25;2.03;;;1.50;;
13477;SDS011;12598;62.382;17.344;2023-05-10T03:01:27;2.55;;;1.50;;
13477;SDS011;12598;62.382;17.344;2023-05-10T03:02:31;1.73;;;1.38;;
13477;SDS011;12598;62.382;17.344;2023-05-10T03:03:34;3.05;;;1.63;;
13477;SDS011;12598;62.382;17.344;2023-05-10T03:04:36;3.25;;;1.50;;
13477;SDS011;12598;62.382;17.344;2023-05-10T03:05:38;2.05;;;1.48;;
13477;SDS011;12598;62.382;17.344;2023-05-10T03:06:40;2.97;;;1.48;;
13477;SDS011;12598;62.382;17.344;2023-05-10T03:07:43;2.83;;;1.58;;
13477;SDS011;12598;62.382;17.344;2023-05-10T03:08:46;2.53;;;1.63;;
13477;SDS011;12598;62.382;17.344;2023-05-10T03:09:48;1.88;;;1.30;;
13477;SDS011;12598;62.382;17.344;2023-05-10T03:10:55;1.63;;;1.52;;
13477;SDS011;12598;62.382;17.344;2023-05-10T03:12:07;2.22;;;1.58;;
13477;SDS011;12598;62.382;17.344;2023-05-10T03:13:31;3.33;;;1.83;;
13477;SDS011;12598;62.382;17.344;2023-05-10T03:16:13;4.13;;;1.48;;
13477;SDS011;12598;62.382;17.344;2023-05-10T03:17:35;4.60;;;2.00;;
13477;SDS011;12598;62.382;17.344;2023-05-10T03:18:43;3.55;;;1.90;;
13477;SDS011;12598;62.382;17.344;2023-05-10T03:19:56;3.53;;;1.80;;
13477;SDS011;12598;62.382;17.344;2023-05-10T03:21:02;5.30;;;1.70;;
13477;SDS011;12598;62.382;17.344;2023-05-10T03:22:10;3.78;;;1.70;;
13477;SDS011;12598;62.382;17.344;2023-05-10T03:23:47;3.42;;;1.90;;
13477;SDS011;12598;62.382;17.344;2023-05-10T03:24:58;4.30;;;1.52;;
13477;SDS011;12598;62.382;17.344;2023-05-10T03:26:08;6.03;;;1.73;;
13477;SDS011;12598;62.382;17.344;2023-05-10T03:27:10;3.65;;;2.15;;
13477;SDS011;12598;62.382;17.344;2023-05-10T03:28:16;3.58;;;1.60;;
13477;SDS011;12598;62.382;17.344;2023-05-10T03:29:20;2.28;;;1.40;;
13477;SDS011;12598;62.382;17.344;2023-05-10T03:30:24;2.03;;;1.50;;
13477;SDS011;12598;62.382;17.344;2023-05-10T03:31:26;3.22;;;1.88;;
13477;SDS011;12598;62.382;17.344;2023-05-10T03:32:29;3.67;;;1.88;;
13477;SDS011;12598;62.382;17.344;2023-05-10T03:33:34;3.25;;;1.65;;
13477;SDS011;12598;62.382;17.344;2023-05-10T03:34:40;2.33;;;1.63;;
13477;SDS011;12598;62.382;17.344;2023-05-10T03:35:44;3.40;;;1.35;;
13477;SDS011;12598;62.382;17.344;2023-05-10T03:36:48;2.75;;;1.67;;
13477;SDS011;12598;62.382;17.344;2023-05-10T03:37:50;4.63;;;1.88;;
13477;SDS011;12598;62.382;17.344;2023-05-10T03:38:51;2.33;;;1.70;;
13477;SDS011;12598;62.382;17.344;2023-05-10T03:39:53;3.15;;;1.50;;
13477;SDS011;12598;62.382;17.344;2023-05-10T03:40:55;1.80;;;1.65;;
13477;SDS011;12598;62.382;17.344;2023-05-10T03:41:57;3.47;;;1.90;;
13477;SDS011;12598;62.382;17.344;2023-05-10T03:42:59;2.80;;;1.92;;
13477;SDS011;12598;62.382;17.344;2023-05-10T03:44:01;2.63;;;1.77;;
13477;SDS011;12598;62.382;17.344;2023-05-10T03:45:03;3.58;;;1.40;;
13477;SDS011;12598;62.382;17.344;2023-05-10T03:46:05;3.33;;;1.60;;
13477;SDS011;12598;62.382;17.344;2023-05-10T03:47:08;3.13;;;1.75;;
13477;SDS011;12598;62.382;17.344;2023-05-10T03:48:10;3.08;;;1.55;;
13477;SDS011;12598;62.382;17.344;2023-05-10T03:49:12;6.53;;;1.85;;
13477;SDS011;12598;62.382;17.344;2023-05-10T03:50:14;4.70;;;1.80;;
13477;SDS011;12598;62.382;17.344;2023-05-10T03:51:17;2.88;;;1.90;;
13477;SDS011;12598;62.382;17.344;2023-05-10T03:52:19;3.10;;;1.85;;
13477;SDS011;12598;62.382;17.344;2023-05-10T03:53:21;2.03;;;1.83;;
13477;SDS011;12598;62.382;17.344;2023-05-10T03:54:24;5.10;;;1.70;;
13477;SDS011;12598;62.382;17.344;2023-05-10T03:55:26;5.78;;;2.25;;
13477;SDS011;12598;62.382;17.344;2023-05-10T03:56:29;3.28;;;1.65;;
13477;SDS011;12598;62.382;17.344;2023-05-10T03:57:31;3.90;;;1.95;;
13477;SDS011;12598;62.382;17.344;2023-05-10T03:58:33;4.80;;;1.73;;
13477;SDS011;12598;62.382;17.344;2023-05-10T03:59:35;5.30;;;2.10;;
13477;SDS011;12598;62.382;17.344;2023-05-10T04:00:37;6.18;;;1.55;;
13477;SDS011;12598;62.382;17.344;2023-05-10T04:01:45;5.05;;;1.80;;
13477;SDS011;12598;62.382;17.344;2023-05-10T04:02:47;4.00;;;1.92;;
13477;SDS011;12598;62.382;17.344;2023-05-10T04:03:52;5.00;;;2.00;;
13477;SDS011;12598;62.382;17.344;2023-05-10T04:04:54;5.80;;;2.00;;
13477;SDS011;12598;62.382;17.344;2023-05-10T04:06:00;2.65;;;1.48;;
13477;SDS011;12598;62.382;17.344;2023-05-10T04:07:03;4.78;;;1.63;;
13477;SDS011;12598;62.382;17.344;2023-05-10T04:08:05;6.35;;;1.83;;
13477;SDS011;12598;62.382;17.344;2023-05-10T04:09:07;5.47;;;2.10;;
13477;SDS011;12598;62.382;17.344;2023-05-10T04:10:10;5.70;;;2.25;;
13477;SDS011;12598;62.382;17.344;2023-05-10T04:11:12;5.38;;;2.40;;
13477;SDS011;12598;62.382;17.344;2023-05-10T04:12:15;7.43;;;2.08;;
13477;SDS011;12598;62.382;17.344;2023-05-10T04:13:16;4.70;;;2.33;;
13477;SDS011;12598;62.382;17.344;2023-05-10T04:14:18;8.98;;;2.42;;
13477;SDS011;12598;62.382;17.344;2023-05-10T04:15:20;7.32;;;2.10;;
13477;SDS011;12598;62.382;17.344;2023-05-10T04:16:22;4.82;;;2.35;;
13477;SDS011;12598;62.382;17.344;2023-05-10T04:17:24;5.13;;;1.88;;
13477;SDS011;12598;62.382;17.344;2023-05-10T04:18:26;10.68;;;2.35;;
13477;SDS011;12598;62.382;17.344;2023-05-10T04:19:28;7.90;;;2.63;;
13477;SDS011;12598;62.382;17.344;2023-05-10T04:20:31;8.27;;;2.10;;
13477;SDS011;12598;62.382;17.344;2023-05-10T04:21:34;14.07;;;2.20;;
13477;SDS011;12598;62.382;17.344;2023-05-10T04:22:35;10.38;;;2.85;;
13477;SDS011;12598;62.382;17.344;2023-05-10T04:23:37;9.30;;;2.45;;
13477;SDS011;12598;62.382;17.344;2023-05-10T04:24:39;13.18;;;3.03;;
13477;SDS011;12598;62.382;17.344;2023-05-10T04:25:41;11.48;;;2.60;;
13477;SDS011;12598;62.382;17.344;2023-05-10T04:26:44;12.75;;;2.53;;
13477;SDS011;12598;62.382;17.344;2023-05-10T04:27:45;11.60;;;2.97;;
13477;SDS011;12598;62.382;17.344;2023-05-10T04:28:47;9.70;;;2.72;;
13477;SDS011;12598;62.382;17.344;2023-05-10T04:29:49;10.85;;;2.63;;
13477;SDS011;12598;62.382;17.344;2023-05-10T04:30:51;10.10;;;2.60;;
13477;SDS011;12598;62.382;17.344;2023-05-10T04:31:54;7.95;;;2.53;;
13477;SDS011;12598;62.382;17.344;2023-05-10T04:32:57;6.97;;;2.75;;
13477;SDS011;12598;62.382;17.344;2023-05-10T04:33:59;8.18;;;2.33;;
13477;SDS011;12598;62.382;17.344;2023-05-10T04:35:01;5.88;;;2.47;;
13477;SDS011;12598;62.382;17.344;2023-05-10T04:36:06;8.05;;;2.60;;
13477;SDS011;12598;62.382;17.344;2023-05-10T04:37:08;4.35;;;2.13;;
13477;SDS011;12598;62.382;17.344;2023-05-10T04:38:10;7.40;;;2.50;;
13477;SDS011;12598;62.382;17.344;2023-05-10T04:39:11;6.30;;;2.45;;
13477;SDS011;12598;62.382;17.344;2023-05-10T04:40:15;4.95;;;2.35;;
13477;SDS011;12598;62.382;17.344;2023-05-10T04:41:17;10.55;;;2.83;;
13477;SDS011;12598;62.382;17.344;2023-05-10T04:42:19;7.65;;;2.78;;
13477;SDS011;12598;62.382;17.344;2023-05-10T04:43:20;5.97;;;2.47;;
13477;SDS011;12598;62.382;17.344;2023-05-10T04:44:22;8.98;;;2.88;;
13477;SDS011;12598;62.382;17.344;2023-05-10T04:45:24;9.13;;;2.58;;
13477;SDS011;12598;62.382;17.344;2023-05-10T04:46:26;6.00;;;2.35;;
13477;SDS011;12598;62.382;17.344;2023-05-10T04:47:28;7.47;;;2.78;;
13477;SDS011;12598;62.382;17.344;2023-05-10T04:48:30;8.68;;;2.80;;
13477;SDS011;12598;62.382;17.344;2023-05-10T04:49:32;17.65;;;2.97;;
13477;SDS011;12598;62.382;17.344;2023-05-10T04:50:33;13.20;;;3.20;;
13477;SDS011;12598;62.382;17.344;2023-05-10T04:51:35;19.05;;;3.28;;
13477;SDS011;12598;62.382;17.344;2023-05-10T04:52:37;9.68;;;2.45;;
13477;SDS011;12598;62.382;17.344;2023-05-10T04:53:39;12.90;;;3.28;;
13477;SDS011;12598;62.382;17.344;2023-05-10T04:54:43;7.78;;;2.85;;
13477;SDS011;12598;62.382;17.344;2023-05-10T04:55:45;13.00;;;3.05;;
13477;SDS011;12598;62.382;17.344;2023-05-10T04:56:47;10.52;;;2.88;;
13477;SDS011;12598;62.382;17.344;2023-05-10T04:57:49;11.82;;;3.10;;
13477;SDS011;12598;62.382;17.344;2023-05-10T04:58:51;10.68;;;3.40;;
13477;SDS011;12598;62.382;17.344;2023-05-10T04:59:53;9.15;;;3.20;;
13477;SDS011;12598;62.382;17.344;2023-05-10T05:00:55;7.88;;;2.60;;
13477;SDS011;12598;62.382;17.344;2023-05-10T05:01:56;8.50;;;3.15;;
13477;SDS011;12598;62.382;17.344;2023-05-10T05:02:58;12.50;;;2.97;;
13477;SDS011;12598;62.382;17.344;2023-05-10T05:04:01;12.38;;;3.30;;
13477;SDS011;12598;62.382;17.344;2023-05-10T05:05:03;11.40;;;3.20;;
13477;SDS011;12598;62.382;17.344;2023-05-10T05:06:05;7.13;;;2.85;;
13477;SDS011;12598;62.382;17.344;2023-05-10T05:07:07;9.27;;;3.42;;
13477;SDS011;12598;62.382;17.344;2023-05-10T05:08:09;8.82;;;3.75;;
13477;SDS011;12598;62.382;17.344;2023-05-10T05:09:10;4.97;;;2.95;;
13477;SDS011;12598;62.382;17.344;2023-05-10T05:10:12;7.05;;;3.45;;
13477;SDS011;12598;62.382;17.344;2023-05-10T05:11:14;7.68;;;2.95;;
13477;SDS011;12598;62.382;17.344;2023-05-10T05:12:16;6.70;;;2.80;;
13477;SDS011;12598;62.382;17.344;2023-05-10T05:13:18;7.22;;;3.28;;
13477;SDS011;12598;62.382;17.344;2023-05-10T05:14:21;8.25;;;3.45;;
13477;SDS011;12598;62.382;17.344;2023-05-10T05:15:23;8.45;;;2.70;;
13477;SDS011;12598;62.382;17.344;2023-05-10T05:16:25;8.75;;;3.17;;
13477;SDS011;12598;62.382;17.344;2023-05-10T05:17:27;10.63;;;3.28;;
13477;SDS011;12598;62.382;17.344;2023-05-10T05:18:32;7.80;;;3.75;;
13477;SDS011;12598;62.382;17.344;2023-05-10T05:19:33;8.15;;;3.40;;
13477;SDS011;12598;62.382;17.344;2023-05-10T05:20:35;6.78;;;3.53;;
13477;SDS011;12598;62.382;17.344;2023-05-10T05:21:37;6.22;;;2.90;;
13477;SDS011;12598;62.382;17.344;2023-05-10T05:22:39;9.27;;;3.30;;
13477;SDS011;12598;62.382;17.344;2023-05-10T05:23:41;7.47;;;3.17;;
13477;SDS011;12598;62.382;17.344;2023-05-10T05:24:44;8.50;;;3.17;;
13477;SDS011;12598;62.382;17.344;2023-05-10T05:25:46;6.43;;;3.17;;
13477;SDS011;12598;62.382;17.344;2023-05-10T05:26:48;9.82;;;3.65;;
13477;SDS011;12598;62.382;17.344;2023-05-10T05:27:50;7.70;;;3.20;;
13477;SDS011;12598;62.382;17.344;2023-05-10T05:28:52;7.07;;;3.40;;
13477;SDS011;12598;62.382;17.344;2023-05-10T05:29:56;8.38;;;3.30;;
13477;SDS011;12598;62.382;17.344;2023-05-10T05:30:58;6.78;;;3.35;;
13477;SDS011;12598;62.382;17.344;2023-05-10T05:32:00;10.82;;;3.28;;
13477;SDS011;12598;62.382;17.344;2023-05-10T05:33:02;9.27;;;3.47;;
13477;SDS011;12598;62.382;17.344;2023-05-10T05:34:04;8.07;;;3.42;;
13477;SDS011;12598;62.382;17.344;2023-05-10T05:35:05;5.68;;;2.97;;
13477;SDS011;12598;62.382;17.344;2023-05-10T05:36:08;10.23;;;3.30;;
13477;SDS011;12598;62.382;17.344;2023-05-10T05:37:17;11.13;;;3.60;;
13477;SDS011;12598;62.382;17.344;2023-05-10T05:38:19;8.02;;;3.35;;
13477;SDS011;12598;62.382;17.344;2023-05-10T05:39:21;6.60;;;3.38;;
13477;SDS011;12598;62.382;17.344;2023-05-10T05:40:23;8.43;;;3.88;;
13477;SDS011;12598;62.382;17.344;2023-05-10T05:41:25;8.77;;;3.67;;
13477;SDS011;12598;62.382;17.344;2023-05-10T05:42:27;7.40;;;3.67;;
13477;SDS011;12598;62.382;17.344;2023-05-10T05:43:29;6.90;;;3.63;;
13477;SDS011;12598;62.382;17.344;2023-05-10T05:44:31;7.22;;;3.70;;
13477;SDS011;12598;62.382;17.344;2023-05-10T05:45:33;10.20;;;3.85;;
13477;SDS011;12598;62.382;17.344;2023-05-10T05:46:35;9.98;;;3.47;;
13477;SDS011;12598;62.382;17.344;2023-05-10T05:47:37;7.63;;;3.25;;
13477;SDS011;12598;62.382;17.344;2023-05-10T05:48:39;9.57;;;3.78;;
13477;SDS011;12598;62.382;17.344;2023-05-10T05:49:40;7.70;;;3.67;;
13477;SDS011;12598;62.382;17.344;2023-05-10T05:50:42;10.07;;;4.15;;
13477;SDS011;12598;62.382;17.344;2023-05-10T05:51:44;10.43;;;3.72;;
13477;SDS011;12598;62.382;17.344;2023-05-10T05:52:46;6.60;;;3.50;;
13477;SDS011;12598;62.382;17.344;2023-05-10T05:53:48;9.68;;;3.20;;
13477;SDS011;12598;62.382;17.344;2023-05-10T05:54:50;6.57;;;3.58;;
13477;SDS011;12598;62.382;17.344;2023-05-10T05:55:55;8.77;;;3.85;;
13477;SDS011;12598;62.382;17.344;2023-05-10T05:56:59;6.35;;;3.85;;
13477;SDS011;12598;62.382;17.344;2023-05-10T05:58:02;9.30;;;4.10;;
13477;SDS011;12598;62.382;17.344;2023-05-10T05:59:04;7.30;;;3.22;;
13477;SDS011;12598;62.382;17.344;2023-05-10T06:00:06;7.78;;;3.70;;
13477;SDS011;12598;62.382;17.344;2023-05-10T06:01:15;5.68;;;3.00;;
13477;SDS011;12598;62.382;17.344;2023-05-10T06:02:17;5.82;;;3.53;;
13477;SDS011;12598;62.382;17.344;2023-05-10T06:03:19;6.32;;;3.58;;
13477;SDS011;12598;62.382;17.344;2023-05-10T06:04:21;8.45;;;3.28;;
13477;SDS011;12598;62.382;17.344;2023-05-10T06:05:23;10.98;;;3.85;;
13477;SDS011;12598;62.382;17.344;2023-05-10T06:06:25;9.30;;;3.42;;
13477;SDS011;12598;62.382;17.344;2023-05-10T06:07:27;8.18;;;3.70;;
13477;SDS011;12598;62.382;17.344;2023-05-10T06:08:29;6.80;;;3.83;;
13477;SDS011;12598;62.382;17.344;2023-05-10T06:09:30;9.02;;;3.80;;
13477;SDS011;12598;62.382;17.344;2023-05-10T06:10:32;8.77;;;3.97;;
13477;SDS011;12598;62.382;17.344;2023-05-10T06:11:35;6.68;;;3.42;;
13477;SDS011;12598;62.382;17.344;2023-05-10T06:12:37;6.75;;;3.33;;
13477;SDS011;12598;62.382;17.344;2023-05-10T06:13:39;9.23;;;3.83;;
13477;SDS011;12598;62.382;17.344;2023-05-10T06:14:41;7.30;;;4.20;;
13477;SDS011;12598;62.382;17.344;2023-05-10T06:15:43;7.43;;;3.20;;
13477;SDS011;12598;62.382;17.344;2023-05-10T06:16:44;7.10;;;3.65;;
13477;SDS011;12598;62.382;17.344;2023-05-10T06:17:46;8.82;;;3.63;;
13477;SDS011;12598;62.382;17.344;2023-05-10T06:18:50;7.00;;;3.33;;
13477;SDS011;12598;62.382;17.344;2023-05-10T06:19:52;9.30;;;3.70;;
13477;SDS011;12598;62.382;17.344;2023-05-10T06:20:54;7.43;;;3.60;;
13477;SDS011;12598;62.382;17.344;2023-05-10T06:21:56;8.93;;;4.47;;
13477;SDS011;12598;62.382;17.344;2023-05-10T06:22:58;7.40;;;3.10;;
13477;SDS011;12598;62.382;17.344;2023-05-10T06:24:00;10.05;;;3.47;;
13477;SDS011;12598;62.382;17.344;2023-05-10T06:25:02;14.20;;;3.75;;
13477;SDS011;12598;62.382;17.344;2023-05-10T06:26:04;11.30;;;3.60;;
13477;SDS011;12598;62.382;17.344;2023-05-10T06:27:06;15.60;;;3.97;;
13477;SDS011;12598;62.382;17.344;2023-05-10T06:28:07;7.35;;;3.28;;
13477;SDS011;12598;62.382;17.344;2023-05-10T06:29:09;12.95;;;4.28;;
13477;SDS011;12598;62.382;17.344;2023-05-10T06:30:11;8.43;;;3.70;;
13477;SDS011;12598;62.382;17.344;2023-05-10T06:31:14;8.20;;;3.58;;
13477;SDS011;12598;62.382;17.344;2023-05-10T06:32:17;8.82;;;4.00;;
13477;SDS011;12598;62.382;17.344;2023-05-10T06:33:19;7.05;;;4.10;;